sensor_id;sensor_type;location;lat;lon;timestamp;P1;durP1;ratioP1;P2;durP2;ratioP2
20697;SDS011;10508;50.956;4.640;2023-10-09T00:01:06;7.55;;;3.88;;
20697;SDS011;10508;50.956;4.640;2023-10-09T00:03:39;11.15;;;4.13;;
20697;SDS011;10508;50.956;4.640;2023-10-09T00:06:06;10.20;;;4.05;;
20697;SDS011;10508;50.956;4.640;2023-10-09T00:08:32;11.25;;;4.35;;
20697;SDS011;10508;50.956;4.640;2023-10-09T00:11:02;13.27;;;4.40;;
20697;SDS011;10508;50.956;4.640;2023-10-09T00:13:39;7.82;;;4.43;;
20697;SDS011;10508;50.956;4.640;2023-10-09T00:16:14;8.25;;;3.92;;
20697;SDS011;10508;50.956;4.640;2023-10-09T00:18:48;9.73;;;4.22;;
20697;SDS011;10508;50.956;4.640;2023-10-09T00:21:17;12.10;;;4.45;;
20697;SDS011;10508;50.956;4.640;2023-10-09T00:23:46;11.02;;;4.50;;
20697;SDS011;10508;50.956;4.640;2023-10-09T00:26:20;9.07;;;4.30;;
20697;SDS011;10508;50.956;4.640;2023-10-09T00:28:47;9.65;;;4.03;;
20697;SDS011;10508;50.956;4.640;2023-10-09T00:31:19;9.45;;;4.68;;
20697;SDS011;10508;50.956;4.640;2023-10-09T00:34:01;8.48;;;4.22;;
20697;SDS011;10508;50.956;4.640;2023-10-09T00:36:30;10.30;;;4.28;;
20697;SDS011;10508;50.956;4.640;2023-10-09T00:38:57;9.82;;;4.20;;
20697;SDS011;10508;50.956;4.640;2023-10-09T00:41:37;7.72;;;4.05;;
20697;SDS011;10508;50.956;4.640;2023-10-09T00:44:06;11.73;;;4.60;;
20697;SDS011;10508;50.956;4.640;2023-10-09T00:46:32;9.82;;;3.55;;
20697;SDS011;10508;50.956;4.640;2023-10-09T00:49:00;7.72;;;4.03;;
20697;SDS011;10508;50.956;4.640;2023-10-09T00:51:28;7.68;;;4.03;;
20697;SDS011;10508;50.956;4.640;2023-10-09T00:54:00;9.23;;;4.18;;
20697;SDS011;10508;50.956;4.640;2023-10-09T00:56:32;10.07;;;4.28;;
20697;SDS011;10508;50.956;4.640;2023-10-09T00:59:08;10.23;;;4.55;;
20697;SDS011;10508;50.956;4.640;2023-10-09T01:01:39;8.68;;;4.00;;
20697;SDS011;10508;50.956;4.640;2023-10-09T01:04:09;10.43;;;4.03;;
20697;SDS011;10508;50.956;4.640;2023-10-09T01:06:37;27.05;;;4.88;;
20697;SDS011;10508;50.956;4.640;2023-10-09T01:09:12;14.48;;;4.57;;
20697;SDS011;10508;50.956;4.640;2023-10-09T01:11:42;11.02;;;5.05;;
20697;SDS011;10508;50.956;4.640;2023-10-09T01:14:29;11.07;;;4.57;;
20697;SDS011;10508;50.956;4.640;2023-10-09T01:16:56;17.27;;;5.22;;
20697;SDS011;10508;50.956;4.640;2023-10-09T01:19:22;12.48;;;5.00;;
20697;SDS011;10508;50.956;4.640;2023-10-09T01:21:49;10.90;;;4.70;;
20697;SDS011;10508;50.956;4.640;2023-10-09T01:24:15;9.35;;;4.75;;
20697;SDS011;10508;50.956;4.640;2023-10-09T01:26:42;11.23;;;4.68;;
20697;SDS011;10508;50.956;4.640;2023-10-09T01:29:15;11.63;;;4.85;;
20697;SDS011;10508;50.956;4.640;2023-10-09T01:34:35;12.35;;;5.07;;
20697;SDS011;10508;50.956;4.640;2023-10-09T01:37:10;10.13;;;4.65;;
20697;SDS011;10508;50.956;4.640;2023-10-09T01:39:51;13.35;;;4.93;;
20697;SDS011;10508;50.956;4.640;2023-10-09T01:42:36;12.10;;;5.35;;
20697;SDS011;10508;50.956;4.640;2023-10-09T01:45:10;17.88;;;5.40;;
20697;SDS011;10508;50.956;4.640;2023-10-09T01:47:45;13.95;;;4.63;;
20697;SDS011;10508;50.956;4.640;2023-10-09T01:50:17;9.50;;;4.68;;
20697;SDS011;10508;50.956;4.640;2023-10-09T01:52:52;14.02;;;5.28;;
20697;SDS011;10508;50.956;4.640;2023-10-09T01:55:18;13.13;;;5.63;;
20697;SDS011;10508;50.956;4.640;2023-10-09T01:58:04;13.32;;;5.22;;
20697;SDS011;10508;50.956;4.640;2023-10-09T02:00:48;12.98;;;5.35;;
20697;SDS011;10508;50.956;4.640;2023-10-09T02:03:19;10.60;;;4.82;;
20697;SDS011;10508;50.956;4.640;2023-10-09T02:05:49;11.38;;;5.50;;
20697;SDS011;10508;50.956;4.640;2023-10-09T02:08:16;12.13;;;5.50;;
20697;SDS011;10508;50.956;4.640;2023-10-09T02:10:47;10.43;;;5.18;;
20697;SDS011;10508;50.956;4.640;2023-10-09T02:13:13;26.38;;;6.15;;
20697;SDS011;10508;50.956;4.640;2023-10-09T02:15:42;17.60;;;5.72;;
20697;SDS011;10508;50.956;4.640;2023-10-09T02:18:12;9.00;;;4.80;;
20697;SDS011;10508;50.956;4.640;2023-10-09T02:20:49;10.90;;;4.95;;
20697;SDS011;10508;50.956;4.640;2023-10-09T02:23:37;12.55;;;5.32;;
20697;SDS011;10508;50.956;4.640;2023-10-09T02:26:16;10.18;;;5.47;;
20697;SDS011;10508;50.956;4.640;2023-10-09T02:28:45;10.82;;;4.70;;
20697;SDS011;10508;50.956;4.640;2023-10-09T02:31:34;11.23;;;5.38;;
20697;SDS011;10508;50.956;4.640;2023-10-09T02:34:00;8.93;;;4.28;;
20697;SDS011;10508;50.956;4.640;2023-10-09T02:36:30;12.00;;;5.18;;
20697;SDS011;10508;50.956;4.640;2023-10-09T02:38:56;10.57;;;4.85;;
20697;SDS011;10508;50.956;4.640;2023-10-09T02:41:22;9.77;;;4.70;;
20697;SDS011;10508;50.956;4.640;2023-10-09T02:43:54;11.27;;;4.85;;
20697;SDS011;10508;50.956;4.640;2023-10-09T02:46:34;10.52;;;4.47;;
20697;SDS011;10508;50.956;4.640;2023-10-09T02:49:01;13.73;;;5.18;;
20697;SDS011;10508;50.956;4.640;2023-10-09T02:51:34;12.77;;;5.20;;
20697;SDS011;10508;50.956;4.640;2023-10-09T02:54:07;12.65;;;5.05;;
20697;SDS011;10508;50.956;4.640;2023-10-09T02:56:46;18.25;;;5.38;;
20697;SDS011;10508;50.956;4.640;2023-10-09T02:59:19;15.60;;;4.78;;
20697;SDS011;10508;50.956;4.640;2023-10-09T03:01:47;11.57;;;5.30;;
20697;SDS011;10508;50.956;4.640;2023-10-09T03:04:13;11.15;;;5.30;;
20697;SDS011;10508;50.956;4.640;2023-10-09T03:06:40;10.45;;;4.47;;
20697;SDS011;10508;50.956;4.640;2023-10-09T03:09:19;9.80;;;5.03;;
20697;SDS011;10508;50.956;4.640;2023-10-09T03:11:51;11.90;;;5.35;;
20697;SDS011;10508;50.956;4.640;2023-10-09T03:14:27;11.27;;;5.13;;
20697;SDS011;10508;50.956;4.640;2023-10-09T03:16:57;14.18;;;5.20;;
20697;SDS011;10508;50.956;4.640;2023-10-09T03:19:25;8.07;;;4.43;;
20697;SDS011;10508;50.956;4.640;2023-10-09T03:21:52;15.35;;;4.78;;
20697;SDS011;10508;50.956;4.640;2023-10-09T03:24:18;12.35;;;4.90;;
20697;SDS011;10508;50.956;4.640;2023-10-09T03:26:44;15.38;;;6.13;;
20697;SDS011;10508;50.956;4.640;2023-10-09T03:29:11;11.38;;;4.78;;
20697;SDS011;10508;50.956;4.640;2023-10-09T03:31:37;13.05;;;5.78;;
20697;SDS011;10508;50.956;4.640;2023-10-09T03:34:04;9.48;;;5.25;;
20697;SDS011;10508;50.956;4.640;2023-10-09T03:36:30;10.75;;;4.95;;
20697;SDS011;10508;50.956;4.640;2023-10-09T03:39:02;13.50;;;5.55;;
20697;SDS011;10508;50.956;4.640;2023-10-09T03:41:33;9.10;;;5.03;;
20697;SDS011;10508;50.956;4.640;2023-10-09T03:44:05;12.60;;;5.50;;
20697;SDS011;10508;50.956;4.640;2023-10-09T03:46:31;10.52;;;4.93;;
20697;SDS011;10508;50.956;4.640;2023-10-09T03:48:58;13.07;;;5.68;;
20697;SDS011;10508;50.956;4.640;2023-10-09T03:51:35;12.52;;;5.13;;
20697;SDS011;10508;50.956;4.640;2023-10-09T03:54:02;9.23;;;5.13;;
20697;SDS011;10508;50.956;4.640;2023-10-09T03:56:34;10.35;;;5.22;;
20697;SDS011;10508;50.956;4.640;2023-10-09T03:59:01;14.98;;;5.38;;
20697;SDS011;10508;50.956;4.640;2023-10-09T04:01:29;12.15;;;5.78;;
20697;SDS011;10508;50.956;4.640;2023-10-09T04:04:03;9.90;;;4.97;;
20697;SDS011;10508;50.956;4.640;2023-10-09T04:06:31;17.55;;;5.78;;
20697;SDS011;10508;50.956;4.640;2023-10-09T04:08:58;13.57;;;5.65;;
20697;SDS011;10508;50.956;4.640;2023-10-09T04:11:25;10.57;;;4.65;;
20697;SDS011;10508;50.956;4.640;2023-10-09T04:13:51;16.80;;;5.38;;
20697;SDS011;10508;50.956;4.640;2023-10-09T04:16:19;15.43;;;5.95;;
20697;SDS011;10508;50.956;4.640;2023-10-09T04:18:57;12.77;;;5.78;;
20697;SDS011;10508;50.956;4.640;2023-10-09T04:21:24;15.27;;;5.57;;
20697;SDS011;10508;50.956;4.640;2023-10-09T04:24:01;15.07;;;6.18;;
20697;SDS011;10508;50.956;4.640;2023-10-09T04:26:42;11.40;;;5.40;;
20697;SDS011;10508;50.956;4.640;2023-10-09T04:29:11;13.15;;;5.47;;
20697;SDS011;10508;50.956;4.640;2023-10-09T04:31:51;15.75;;;5.70;;
20697;SDS011;10508;50.956;4.640;2023-10-09T04:34:18;12.35;;;5.60;;
20697;SDS011;10508;50.956;4.640;2023-10-09T04:36:49;12.10;;;5.72;;
20697;SDS011;10508;50.956;4.640;2023-10-09T04:39:15;15.50;;;6.53;;
20697;SDS011;10508;50.956;4.640;2023-10-09T04:42:00;17.35;;;6.78;;
20697;SDS011;10508;50.956;4.640;2023-10-09T04:44:46;11.93;;;5.60;;
20697;SDS011;10508;50.956;4.640;2023-10-09T04:47:27;20.13;;;7.00;;
20697;SDS011;10508;50.956;4.640;2023-10-09T04:50:07;17.02;;;7.03;;
20697;SDS011;10508;50.956;4.640;2023-10-09T04:52:39;15.98;;;6.57;;
20697;SDS011;10508;50.956;4.640;2023-10-09T04:55:06;12.38;;;5.85;;
20697;SDS011;10508;50.956;4.640;2023-10-09T04:57:39;11.50;;;6.07;;
20697;SDS011;10508;50.956;4.640;2023-10-09T05:02:50;13.38;;;6.57;;
20697;SDS011;10508;50.956;4.640;2023-10-09T05:05:23;18.88;;;6.70;;
20697;SDS011;10508;50.956;4.640;2023-10-09T05:10:43;15.30;;;6.15;;
20697;SDS011;10508;50.956;4.640;2023-10-09T05:13:30;15.20;;;6.65;;
20697;SDS011;10508;50.956;4.640;2023-10-09T05:16:09;17.83;;;7.15;;
20697;SDS011;10508;50.956;4.640;2023-10-09T05:18:41;18.95;;;7.15;;
20697;SDS011;10508;50.956;4.640;2023-10-09T05:21:09;12.57;;;6.00;;
20697;SDS011;10508;50.956;4.640;2023-10-09T05:23:56;16.80;;;7.22;;
20697;SDS011;10508;50.956;4.640;2023-10-09T05:26:40;15.55;;;6.28;;
20697;SDS011;10508;50.956;4.640;2023-10-09T05:29:16;13.90;;;6.15;;
20697;SDS011;10508;50.956;4.640;2023-10-09T05:31:46;19.25;;;7.72;;
20697;SDS011;10508;50.956;4.640;2023-10-09T05:34:25;15.77;;;6.65;;
20697;SDS011;10508;50.956;4.640;2023-10-09T05:37:05;13.95;;;6.90;;
20697;SDS011;10508;50.956;4.640;2023-10-09T05:39:53;20.20;;;7.75;;
20697;SDS011;10508;50.956;4.640;2023-10-09T05:42:25;18.10;;;8.30;;
20697;SDS011;10508;50.956;4.640;2023-10-09T05:47:43;19.92;;;7.97;;
20697;SDS011;10508;50.956;4.640;2023-10-09T05:50:19;19.08;;;7.55;;
20697;SDS011;10508;50.956;4.640;2023-10-09T05:52:51;20.15;;;8.77;;
20697;SDS011;10508;50.956;4.640;2023-10-09T05:55:24;20.60;;;8.52;;
20697;SDS011;10508;50.956;4.640;2023-10-09T05:58:10;22.92;;;8.35;;
20697;SDS011;10508;50.956;4.640;2023-10-09T06:00:54;20.98;;;7.82;;
20697;SDS011;10508;50.956;4.640;2023-10-09T06:03:39;28.33;;;11.32;;
20697;SDS011;10508;50.956;4.640;2023-10-09T06:06:22;24.45;;;9.82;;
20697;SDS011;10508;50.956;4.640;2023-10-09T06:09:07;16.27;;;7.50;;
20697;SDS011;10508;50.956;4.640;2023-10-09T06:11:36;20.83;;;7.93;;
20697;SDS011;10508;50.956;4.640;2023-10-09T06:14:06;20.10;;;8.27;;
20697;SDS011;10508;50.956;4.640;2023-10-09T06:16:35;24.83;;;7.78;;
20697;SDS011;10508;50.956;4.640;2023-10-09T06:19:05;17.35;;;7.95;;
20697;SDS011;10508;50.956;4.640;2023-10-09T06:21:40;13.65;;;7.60;;
20697;SDS011;10508;50.956;4.640;2023-10-09T06:24:19;22.00;;;8.13;;
20697;SDS011;10508;50.956;4.640;2023-10-09T06:26:47;22.60;;;8.68;;
20697;SDS011;10508;50.956;4.640;2023-10-09T06:29:23;16.13;;;8.77;;
20697;SDS011;10508;50.956;4.640;2023-10-09T06:32:05;20.33;;;8.48;;
20697;SDS011;10508;50.956;4.640;2023-10-09T06:37:29;19.15;;;8.15;;
20697;SDS011;10508;50.956;4.640;2023-10-09T06:39:55;20.33;;;8.35;;
20697;SDS011;10508;50.956;4.640;2023-10-09T06:42:25;21.88;;;8.45;;
20697;SDS011;10508;50.956;4.640;2023-10-09T06:45:07;19.55;;;8.88;;
20697;SDS011;10508;50.956;4.640;2023-10-09T06:47:40;23.52;;;8.52;;
20697;SDS011;10508;50.956;4.640;2023-10-09T06:50:10;15.82;;;7.50;;
20697;SDS011;10508;50.956;4.640;2023-10-09T06:52:45;17.08;;;8.23;;
20697;SDS011;10508;50.956;4.640;2023-10-09T06:55:35;23.67;;;8.10;;
20697;SDS011;10508;50.956;4.640;2023-10-09T06:58:17;20.17;;;8.13;;
20697;SDS011;10508;50.956;4.640;2023-10-09T07:00:53;18.73;;;7.80;;
20697;SDS011;10508;50.956;4.640;2023-10-09T07:03:19;18.17;;;8.13;;
20697;SDS011;10508;50.956;4.640;2023-10-09T07:06:07;19.55;;;7.55;;
20697;SDS011;10508;50.956;4.640;2023-10-09T07:08:53;18.85;;;8.10;;
20697;SDS011;10508;50.956;4.640;2023-10-09T07:11:48;16.42;;;7.40;;
20697;SDS011;10508;50.956;4.640;2023-10-09T07:14:15;22.58;;;7.97;;
20697;SDS011;10508;50.956;4.640;2023-10-09T07:16:58;27.52;;;8.27;;
20697;SDS011;10508;50.956;4.640;2023-10-09T07:19:28;18.80;;;7.22;;
20697;SDS011;10508;50.956;4.640;2023-10-09T07:22:07;17.05;;;8.07;;
20697;SDS011;10508;50.956;4.640;2023-10-09T07:24:48;19.25;;;8.38;;
20697;SDS011;10508;50.956;4.640;2023-10-09T07:27:19;19.67;;;7.95;;
20697;SDS011;10508;50.956;4.640;2023-10-09T07:30:05;18.30;;;8.07;;
20697;SDS011;10508;50.956;4.640;2023-10-09T07:32:50;22.05;;;8.18;;
20697;SDS011;10508;50.956;4.640;2023-10-09T07:35:19;16.75;;;7.70;;
20697;SDS011;10508;50.956;4.640;2023-10-09T07:38:05;21.00;;;7.35;;
20697;SDS011;10508;50.956;4.640;2023-10-09T07:40:38;18.15;;;8.13;;
20697;SDS011;10508;50.956;4.640;2023-10-09T07:43:24;15.95;;;7.40;;
20697;SDS011;10508;50.956;4.640;2023-10-09T07:46:11;15.93;;;7.30;;
20697;SDS011;10508;50.956;4.640;2023-10-09T07:49:09;15.15;;;6.90;;
20697;SDS011;10508;50.956;4.640;2023-10-09T07:51:37;13.68;;;7.07;;
20697;SDS011;10508;50.956;4.640;2023-10-09T07:54:08;17.00;;;6.82;;
20697;SDS011;10508;50.956;4.640;2023-10-09T07:56:40;20.05;;;8.00;;
20697;SDS011;10508;50.956;4.640;2023-10-09T07:59:09;27.10;;;7.80;;
20697;SDS011;10508;50.956;4.640;2023-10-09T08:01:37;17.70;;;8.07;;
20697;SDS011;10508;50.956;4.640;2023-10-09T08:04:03;17.40;;;8.02;;
20697;SDS011;10508;50.956;4.640;2023-10-09T08:06:36;17.05;;;7.82;;
20697;SDS011;10508;50.956;4.640;2023-10-09T08:09:07;15.13;;;7.38;;
20697;SDS011;10508;50.956;4.640;2023-10-09T08:11:36;16.10;;;7.93;;
20697;SDS011;10508;50.956;4.640;2023-10-09T08:14:09;17.95;;;8.23;;
20697;SDS011;10508;50.956;4.640;2023-10-09T08:16:47;17.83;;;7.63;;
20697;SDS011;10508;50.956;4.640;2023-10-09T08:19:14;21.10;;;7.80;;
20697;SDS011;10508;50.956;4.640;2023-10-09T08:22:09;19.50;;;8.02;;
20697;SDS011;10508;50.956;4.640;2023-10-09T08:24:47;19.35;;;7.88;;
20697;SDS011;10508;50.956;4.640;2023-10-09T08:27:26;20.52;;;8.52;;
20697;SDS011;10508;50.956;4.640;2023-10-09T08:30:05;16.90;;;7.93;;
20697;SDS011;10508;50.956;4.640;2023-10-09T08:32:37;20.30;;;8.45;;
20697;SDS011;10508;50.956;4.640;2023-10-09T08:35:04;13.25;;;7.47;;
20697;SDS011;10508;50.956;4.640;2023-10-09T08:37:44;16.42;;;8.45;;
20697;SDS011;10508;50.956;4.640;2023-10-09T08:40:13;15.70;;;7.35;;
20697;SDS011;10508;50.956;4.640;2023-10-09T08:42:43;19.00;;;7.55;;
20697;SDS011;10508;50.956;4.640;2023-10-09T08:45:14;17.65;;;7.78;;
20697;SDS011;10508;50.956;4.640;2023-10-09T08:47:42;25.15;;;8.80;;
20697;SDS011;10508;50.956;4.640;2023-10-09T08:50:08;18.50;;;8.15;;
20697;SDS011;10508;50.956;4.640;2023-10-09T08:52:38;17.30;;;7.38;;
20697;SDS011;10508;50.956;4.640;2023-10-09T08:55:04;14.45;;;7.55;;
20697;SDS011;10508;50.956;4.640;2023-10-09T08:57:32;17.38;;;7.55;;
20697;SDS011;10508;50.956;4.640;2023-10-09T08:59:58;21.08;;;7.97;;
20697;SDS011;10508;50.956;4.640;2023-10-09T09:02:25;15.60;;;7.13;;
20697;SDS011;10508;50.956;4.640;2023-10-09T09:04:51;16.98;;;6.72;;
20697;SDS011;10508;50.956;4.640;2023-10-09T09:07:24;16.83;;;6.13;;
20697;SDS011;10508;50.956;4.640;2023-10-09T09:09:55;17.55;;;7.28;;
20697;SDS011;10508;50.956;4.640;2023-10-09T09:12:42;16.77;;;7.28;;
20697;SDS011;10508;50.956;4.640;2023-10-09T09:15:15;18.67;;;8.13;;
20697;SDS011;10508;50.956;4.640;2023-10-09T09:17:45;11.55;;;6.32;;
20697;SDS011;10508;50.956;4.640;2023-10-09T09:22:57;13.18;;;6.80;;
20697;SDS011;10508;50.956;4.640;2023-10-09T09:25:38;14.65;;;6.97;;
20697;SDS011;10508;50.956;4.640;2023-10-09T09:28:09;17.40;;;7.95;;
20697;SDS011;10508;50.956;4.640;2023-10-09T09:30:37;16.33;;;7.32;;
20697;SDS011;10508;50.956;4.640;2023-10-09T09:36:02;13.90;;;7.35;;
20697;SDS011;10508;50.956;4.640;2023-10-09T09:38:29;18.35;;;7.32;;
20697;SDS011;10508;50.956;4.640;2023-10-09T09:41:15;13.45;;;5.85;;
20697;SDS011;10508;50.956;4.640;2023-10-09T09:43:54;15.55;;;7.35;;
20697;SDS011;10508;50.956;4.640;2023-10-09T09:46:27;14.35;;;6.38;;
20697;SDS011;10508;50.956;4.640;2023-10-09T09:49:01;14.95;;;7.20;;
20697;SDS011;10508;50.956;4.640;2023-10-09T09:51:31;18.75;;;6.93;;
20697;SDS011;10508;50.956;4.640;2023-10-09T09:53:57;19.63;;;7.55;;
20697;SDS011;10508;50.956;4.640;2023-10-09T09:56:27;12.45;;;6.13;;
20697;SDS011;10508;50.956;4.640;2023-10-09T09:58:57;15.23;;;6.13;;
20697;SDS011;10508;50.956;4.640;2023-10-09T10:01:25;13.40;;;5.78;;
20697;SDS011;10508;50.956;4.640;2023-10-09T10:03:59;13.32;;;6.43;;
20697;SDS011;10508;50.956;4.640;2023-10-09T10:06:29;14.02;;;6.25;;
20697;SDS011;10508;50.956;4.640;2023-10-09T10:08:57;13.25;;;5.65;;
20697;SDS011;10508;50.956;4.640;2023-10-09T10:14:16;13.85;;;6.50;;
20697;SDS011;10508;50.956;4.640;2023-10-09T10:22:29;19.35;;;6.88;;
20697;SDS011;10508;50.956;4.640;2023-10-09T10:24:56;15.90;;;7.20;;
20697;SDS011;10508;50.956;4.640;2023-10-09T10:27:34;18.02;;;6.43;;
20697;SDS011;10508;50.956;4.640;2023-10-09T10:32:57;18.58;;;7.55;;
20697;SDS011;10508;50.956;4.640;2023-10-09T10:35:23;13.48;;;6.45;;
20697;SDS011;10508;50.956;4.640;2023-10-09T10:38:23;21.88;;;7.00;;
20697;SDS011;10508;50.956;4.640;2023-10-09T10:40:49;13.75;;;6.15;;
20697;SDS011;10508;50.956;4.640;2023-10-09T10:43:26;13.85;;;6.55;;
20697;SDS011;10508;50.956;4.640;2023-10-09T10:46:04;15.05;;;6.30;;
20697;SDS011;10508;50.956;4.640;2023-10-09T10:48:39;14.07;;;6.40;;
20697;SDS011;10508;50.956;4.640;2023-10-09T10:51:05;16.20;;;6.40;;
20697;SDS011;10508;50.956;4.640;2023-10-09T10:53:31;18.75;;;7.80;;
20697;SDS011;10508;50.956;4.640;2023-10-09T10:56:12;15.10;;;7.20;;
20697;SDS011;10508;50.956;4.640;2023-10-09T10:58:41;15.18;;;6.95;;
20697;SDS011;10508;50.956;4.640;2023-10-09T11:01:18;16.52;;;6.55;;
20697;SDS011;10508;50.956;4.640;2023-10-09T11:03:49;13.07;;;7.03;;
20697;SDS011;10508;50.956;4.640;2023-10-09T11:06:24;14.45;;;7.18;;
20697;SDS011;10508;50.956;4.640;2023-10-09T11:08:59;17.15;;;6.53;;
20697;SDS011;10508;50.956;4.640;2023-10-09T11:11:34;14.52;;;5.93;;
20697;SDS011;10508;50.956;4.640;2023-10-09T11:14:08;12.88;;;6.60;;
20697;SDS011;10508;50.956;4.640;2023-10-09T11:16:39;15.40;;;6.70;;
20697;SDS011;10508;50.956;4.640;2023-10-09T11:19:28;14.88;;;6.95;;
20697;SDS011;10508;50.956;4.640;2023-10-09T11:21:54;18.60;;;7.20;;
20697;SDS011;10508;50.956;4.640;2023-10-09T11:24:39;14.63;;;6.80;;
20697;SDS011;10508;50.956;4.640;2023-10-09T11:27:08;14.80;;;6.65;;
20697;SDS011;10508;50.956;4.640;2023-10-09T11:29:52;14.60;;;6.63;;
20697;SDS011;10508;50.956;4.640;2023-10-09T11:32:20;16.55;;;6.63;;
20697;SDS011;10508;50.956;4.640;2023-10-09T11:34:51;13.80;;;6.10;;
20697;SDS011;10508;50.956;4.640;2023-10-09T11:37:18;17.45;;;6.60;;
20697;SDS011;10508;50.956;4.640;2023-10-09T11:39:56;11.13;;;6.10;;
20697;SDS011;10508;50.956;4.640;2023-10-09T11:42:23;13.50;;;6.10;;
20697;SDS011;10508;50.956;4.640;2023-10-09T11:45:03;13.48;;;6.28;;
20697;SDS011;10508;50.956;4.640;2023-10-09T11:47:44;20.27;;;6.88;;
20697;SDS011;10508;50.956;4.640;2023-10-09T11:50:38;16.38;;;6.80;;
20697;SDS011;10508;50.956;4.640;2023-10-09T11:53:27;14.48;;;6.65;;
20697;SDS011;10508;50.956;4.640;2023-10-09T11:55:53;16.73;;;6.82;;
20697;SDS011;10508;50.956;4.640;2023-10-09T11:58:20;14.35;;;5.85;;
20697;SDS011;10508;50.956;4.640;2023-10-09T12:00:52;15.07;;;5.55;;
20697;SDS011;10508;50.956;4.640;2023-10-09T12:03:23;14.90;;;6.28;;
20697;SDS011;10508;50.956;4.640;2023-10-09T12:05:53;13.73;;;6.32;;
20697;SDS011;10508;50.956;4.640;2023-10-09T12:08:21;15.75;;;6.10;;
20697;SDS011;10508;50.956;4.640;2023-10-09T12:10:47;19.15;;;6.88;;
20697;SDS011;10508;50.956;4.640;2023-10-09T12:13:13;14.20;;;6.57;;
20697;SDS011;10508;50.956;4.640;2023-10-09T12:15:40;16.15;;;7.15;;
20697;SDS011;10508;50.956;4.640;2023-10-09T12:18:11;13.98;;;6.22;;
20697;SDS011;10508;50.956;4.640;2023-10-09T12:20:41;17.60;;;7.30;;
20697;SDS011;10508;50.956;4.640;2023-10-09T12:23:07;14.10;;;6.90;;
20697;SDS011;10508;50.956;4.640;2023-10-09T12:25:38;11.55;;;5.78;;
20697;SDS011;10508;50.956;4.640;2023-10-09T12:28:04;15.00;;;6.40;;
20697;SDS011;10508;50.956;4.640;2023-10-09T12:30:31;22.48;;;7.60;;
20697;SDS011;10508;50.956;4.640;2023-10-09T12:33:04;15.88;;;6.85;;
20697;SDS011;10508;50.956;4.640;2023-10-09T12:35:35;15.20;;;6.85;;
20697;SDS011;10508;50.956;4.640;2023-10-09T12:38:01;16.63;;;7.18;;
20697;SDS011;10508;50.956;4.640;2023-10-09T12:40:28;16.08;;;6.90;;
20697;SDS011;10508;50.956;4.640;2023-10-09T12:42:56;18.23;;;7.38;;
20697;SDS011;10508;50.956;4.640;2023-10-09T12:45:25;16.92;;;6.50;;
20697;SDS011;10508;50.956;4.640;2023-10-09T12:47:54;15.10;;;7.30;;
20697;SDS011;10508;50.956;4.640;2023-10-09T12:50:34;16.92;;;6.28;;
20697;SDS011;10508;50.956;4.640;2023-10-09T12:53:06;15.88;;;6.70;;
20697;SDS011;10508;50.956;4.640;2023-10-09T12:55:36;22.23;;;7.72;;
20697;SDS011;10508;50.956;4.640;2023-10-09T12:58:05;18.70;;;7.75;;
20697;SDS011;10508;50.956;4.640;2023-10-09T13:00:33;14.82;;;7.65;;
20697;SDS011;10508;50.956;4.640;2023-10-09T13:03:02;18.08;;;7.32;;
20697;SDS011;10508;50.956;4.640;2023-10-09T13:05:38;15.05;;;7.15;;
20697;SDS011;10508;50.956;4.640;2023-10-09T13:08:17;21.75;;;9.27;;
20697;SDS011;10508;50.956;4.640;2023-10-09T13:10:45;22.17;;;8.45;;
20697;SDS011;10508;50.956;4.640;2023-10-09T13:13:11;15.93;;;7.47;;
20697;SDS011;10508;50.956;4.640;2023-10-09T13:15:37;14.05;;;7.10;;
20697;SDS011;10508;50.956;4.640;2023-10-09T13:18:08;17.10;;;9.10;;
20697;SDS011;10508;50.956;4.640;2023-10-09T13:20:34;17.88;;;7.82;;
20697;SDS011;10508;50.956;4.640;2023-10-09T13:23:01;19.08;;;8.57;;
20697;SDS011;10508;50.956;4.640;2023-10-09T13:25:27;13.70;;;7.30;;
20697;SDS011;10508;50.956;4.640;2023-10-09T13:28:04;19.42;;;8.45;;
20697;SDS011;10508;50.956;4.640;2023-10-09T13:30:30;21.52;;;9.45;;
20697;SDS011;10508;50.956;4.640;2023-10-09T13:33:04;21.58;;;9.63;;
20697;SDS011;10508;50.956;4.640;2023-10-09T13:35:30;21.30;;;9.30;;
20697;SDS011;10508;50.956;4.640;2023-10-09T13:38:06;17.50;;;8.70;;
20697;SDS011;10508;50.956;4.640;2023-10-09T13:40:35;19.98;;;9.60;;
20697;SDS011;10508;50.956;4.640;2023-10-09T13:43:02;16.00;;;8.80;;
20697;SDS011;10508;50.956;4.640;2023-10-09T13:45:28;14.82;;;7.95;;
20697;SDS011;10508;50.956;4.640;2023-10-09T13:47:58;18.67;;;7.88;;
20697;SDS011;10508;50.956;4.640;2023-10-09T13:50:28;20.83;;;7.93;;
20697;SDS011;10508;50.956;4.640;2023-10-09T13:52:58;18.60;;;10.00;;
20697;SDS011;10508;50.956;4.640;2023-10-09T13:55:24;18.90;;;9.27;;
20697;SDS011;10508;50.956;4.640;2023-10-09T13:57:59;26.52;;;9.77;;
20697;SDS011;10508;50.956;4.640;2023-10-09T14:00:25;18.38;;;9.82;;
20697;SDS011;10508;50.956;4.640;2023-10-09T14:03:07;19.55;;;8.50;;
20697;SDS011;10508;50.956;4.640;2023-10-09T14:05:44;18.75;;;8.85;;
20697;SDS011;10508;50.956;4.640;2023-10-09T14:08:22;20.50;;;9.88;;
20697;SDS011;10508;50.956;4.640;2023-10-09T14:10:49;18.70;;;9.15;;
20697;SDS011;10508;50.956;4.640;2023-10-09T14:13:15;18.00;;;8.40;;
20697;SDS011;10508;50.956;4.640;2023-10-09T14:15:43;20.48;;;8.32;;
20697;SDS011;10508;50.956;4.640;2023-10-09T14:18:11;22.88;;;9.38;;
20697;SDS011;10508;50.956;4.640;2023-10-09T14:20:39;19.40;;;9.30;;
20697;SDS011;10508;50.956;4.640;2023-10-09T14:23:06;19.35;;;8.90;;
20697;SDS011;10508;50.956;4.640;2023-10-09T14:25:34;24.15;;;9.20;;
20697;SDS011;10508;50.956;4.640;2023-10-09T14:28:08;20.75;;;8.93;;
20697;SDS011;10508;50.956;4.640;2023-10-09T14:30:37;17.20;;;8.02;;
20697;SDS011;10508;50.956;4.640;2023-10-09T14:33:11;22.25;;;9.52;;
20697;SDS011;10508;50.956;4.640;2023-10-09T14:35:38;18.92;;;9.30;;
20697;SDS011;10508;50.956;4.640;2023-10-09T14:38:05;21.65;;;9.10;;
20697;SDS011;10508;50.956;4.640;2023-10-09T14:40:46;19.80;;;7.75;;
20697;SDS011;10508;50.956;4.640;2023-10-09T14:43:13;21.50;;;9.75;;
20697;SDS011;10508;50.956;4.640;2023-10-09T14:45:46;19.60;;;7.40;;
20697;SDS011;10508;50.956;4.640;2023-10-09T14:48:14;21.80;;;9.27;;
20697;SDS011;10508;50.956;4.640;2023-10-09T14:50:46;19.45;;;8.10;;
20697;SDS011;10508;50.956;4.640;2023-10-09T14:53:13;19.85;;;9.20;;
20697;SDS011;10508;50.956;4.640;2023-10-09T14:55:40;21.23;;;8.43;;
20697;SDS011;10508;50.956;4.640;2023-10-09T14:58:10;21.35;;;8.60;;
20697;SDS011;10508;50.956;4.640;2023-10-09T15:00:36;17.33;;;8.77;;
20697;SDS011;10508;50.956;4.640;2023-10-09T15:03:03;21.40;;;9.45;;
20697;SDS011;10508;50.956;4.640;2023-10-09T15:05:33;24.30;;;7.75;;
20697;SDS011;10508;50.956;4.640;2023-10-09T15:07:59;16.63;;;8.63;;
20697;SDS011;10508;50.956;4.640;2023-10-09T15:10:25;21.92;;;9.02;;
20697;SDS011;10508;50.956;4.640;2023-10-09T15:12:53;21.90;;;8.43;;
20697;SDS011;10508;50.956;4.640;2023-10-09T15:15:19;28.90;;;9.55;;
20697;SDS011;10508;50.956;4.640;2023-10-09T15:17:50;21.38;;;10.02;;
20697;SDS011;10508;50.956;4.640;2023-10-09T15:20:16;21.42;;;7.63;;
20697;SDS011;10508;50.956;4.640;2023-10-09T15:22:43;18.15;;;8.20;;
20697;SDS011;10508;50.956;4.640;2023-10-09T15:25:09;26.55;;;9.05;;
20697;SDS011;10508;50.956;4.640;2023-10-09T15:27:45;25.65;;;8.85;;
20697;SDS011;10508;50.956;4.640;2023-10-09T15:30:11;29.63;;;8.13;;
20697;SDS011;10508;50.956;4.640;2023-10-09T15:32:42;18.20;;;8.35;;
20697;SDS011;10508;50.956;4.640;2023-10-09T15:35:08;21.42;;;8.45;;
20697;SDS011;10508;50.956;4.640;2023-10-09T15:37:41;21.73;;;7.85;;